Time;durP1;ratioP1;P1;durP2;ratioP2;P2;SDS_P1;SDS_P2;PMS_P1;PMS_P2;Temp;Humidity;BMP_temperature;BMP_pressure;BME280_temperature;BME280_humidity;BME280_pressure;Samples;Min_cycle;Max_cycle;Signal;HPM_P1;HPM_P2
2022/08/14 00:02:03;;;;;;;7.03;5.73;;;21.00;59.50;;;;;;5017126;28;20469;-88
2022/08/14 00:04:31;;;;;;;6.00;5.40;;;21.00;59.70;;;;;;5015051;28;20448;-89
2022/08/14 00:06:58;;;;;;;6.73;5.80;;;21.00;60.00;;;;;;5010489;28;20444;-88
2022/08/14 00:09:25;;;;;;;8.53;5.00;;;20.90;60.10;;;;;;5009682;28;20442;-89
2022/08/14 00:11:51;;;;;;;6.10;5.53;;;20.90;60.30;;;;;;5012036;28;20465;-88
2022/08/14 00:14:19;;;;;;;5.63;5.13;;;20.90;60.60;;;;;;5016111;28;20443;-88
2022/08/14 00:16:47;;;;;;;6.47;5.40;;;20.80;60.70;;;;;;5014278;28;20457;-86
2022/08/14 00:19:16;;;;;;;6.00;5.40;;;20.70;61.10;;;;;;5008089;28;20522;-89
2022/08/14 00:21:43;;;;;;;5.83;5.23;;;20.60;61.80;;;;;;5014513;28;20447;-89
2022/08/14 00:24:10;;;;;;;5.30;4.90;;;20.70;62.00;;;;;;5019224;28;20443;-88
2022/08/14 00:26:37;;;;;;;7.03;5.67;;;20.70;62.00;;;;;;5029386;28;20473;-86
2022/08/14 00:29:04;;;;;;;6.50;4.97;;;20.70;62.00;;;;;;5023297;28;20449;-87
2022/08/14 00:31:31;;;;;;;8.07;4.73;;;20.50;62.20;;;;;;5010436;28;20442;-87
2022/08/14 00:33:57;;;;;;;7.13;5.50;;;20.40;62.90;;;;;;5013503;28;20446;-86
2022/08/14 00:36:26;;;;;;;6.83;6.13;;;20.50;63.10;;;;;;5030085;28;20435;-87
2022/08/14 00:38:52;;;;;;;6.60;4.87;;;20.50;63.10;;;;;;5024927;28;20483;-86
2022/08/14 00:41:19;;;;;;;5.80;5.20;;;20.40;63.40;;;;;;5024931;28;20452;-87
2022/08/14 00:43:46;;;;;;;5.70;5.10;;;20.30;64.00;;;;;;5013656;28;20471;-87
2022/08/14 00:46:13;;;;;;;6.17;5.67;;;20.40;64.40;;;;;;5012552;28;20450;-87
2022/08/14 00:48:40;;;;;;;6.63;4.90;;;20.30;64.50;;;;;;5011607;28;20442;-86
2022/08/14 00:51:09;;;;;;;5.83;5.27;;;20.30;64.80;;;;;;5023117;28;20444;-86
2022/08/14 00:53:38;;;;;;;8.80;5.47;;;20.30;65.00;;;;;;5031439;28;20485;-87
2022/08/14 00:56:06;;;;;;;5.20;4.73;;;20.30;64.70;;;;;;5015810;28;20543;-87
2022/08/14 00:58:33;;;;;;;5.73;4.53;;;20.20;65.20;;;;;;5011571;28;20474;-87
2022/08/14 01:01:04;;;;;;;7.63;6.10;;;20.10;65.50;;;;;;5013525;28;20453;-87
2022/08/14 01:03:38;;;;;;;6.03;4.90;;;20.10;65.70;;;;;;5012960;28;20467;-87
2022/08/14 01:06:09;;;;;;;5.70;5.20;;;20.10;66.10;;;;;;5022060;28;20458;-88
2022/08/14 01:08:39;;;;;;;6.10;5.50;;;20.10;66.40;;;;;;5036688;28;20437;-89
2022/08/14 01:11:06;;;;;;;6.20;5.33;;;20.10;66.90;;;;;;5014441;28;20851;-88
2022/08/14 01:13:35;;;;;;;6.70;6.17;;;20.00;67.60;;;;;;5009124;28;20461;-88
2022/08/14 01:16:05;;;;;;;6.53;6.03;;;19.90;68.20;;;;;;5002899;28;20471;-88
2022/08/14 01:21:21;;;;;;;6.13;5.57;;;19.80;69.60;;;;;;5015113;28;20484;-88
2022/08/14 01:23:52;;;;;;;5.40;4.90;;;19.80;69.70;;;;;;5034783;28;20447;-88
2022/08/14 01:26:22;;;;;;;5.37;4.97;;;19.80;70.10;;;;;;5008481;28;20443;-87
2022/08/14 01:28:54;;;;;;;6.73;5.90;;;19.80;70.10;;;;;;5007040;28;20448;-87
2022/08/14 01:31:23;;;;;;;6.33;5.83;;;19.80;70.20;;;;;;5004784;28;20462;-88
2022/08/14 01:33:52;;;;;;;6.80;6.20;;;19.70;70.50;;;;;;5006303;28;20465;-87
2022/08/14 01:36:20;;;;;;;5.80;5.20;;;19.60;70.80;;;;;;5008513;28;20948;-87
2022/08/14 01:38:49;;;;;;;6.37;5.77;;;19.50;71.40;;;;;;5012075;28;20849;-87
2022/08/14 01:41:19;;;;;;;6.40;5.80;;;19.60;72.00;;;;;;5001270;28;20868;-87
2022/08/14 01:43:48;;;;;;;10.30;5.53;;;19.50;72.30;;;;;;5000629;28;20482;-87
2022/08/14 01:46:16;;;;;;;5.80;4.93;;;19.40;73.00;;;;;;5012962;28;20443;-87
2022/08/14 01:48:44;;;;;;;5.20;4.53;;;19.30;73.00;;;;;;5009198;28;20444;-88
2022/08/14 01:51:12;;;;;;;6.93;6.07;;;19.30;73.60;;;;;;5007615;28;20439;-87
2022/08/14 01:53:41;;;;;;;6.17;5.57;;;19.20;73.90;;;;;;5010562;28;20463;-88
2022/08/14 01:56:09;;;;;;;6.13;5.63;;;19.30;74.10;;;;;;5025630;28;20438;-88
2022/08/14 01:58:37;;;;;;;6.23;5.73;;;19.30;74.30;;;;;;5018960;28;20493;-88
2022/08/14 02:01:04;;;;;;;6.53;5.87;;;19.40;74.40;;;;;;5009353;28;20443;-88
2022/08/14 02:03:39;;;;;;;6.57;6.00;;;19.40;74.20;;;;;;5015446;28;20471;-88
2022/08/14 02:06:07;;;;;;;6.27;5.67;;;19.40;74.30;;;;;;5014465;28;20522;-88
2022/08/14 02:08:36;;;;;;;7.40;6.00;;;19.40;74.50;;;;;;5005974;28;20438;-88
2022/08/14 02:11:17;;;;;;;6.63;5.50;;;19.40;74.60;;;;;;5011695;28;20458;-89
2022/08/14 02:13:47;;;;;;;7.10;6.03;;;19.40;74.90;;;;;;5003869;28;20837;-88
2022/08/14 02:16:18;;;;;;;6.30;5.20;;;19.30;74.90;;;;;;5003323;28;20455;-88
2022/08/14 02:18:45;;;;;;;7.07;5.07;;;19.30;74.80;;;;;;5012112;28;20471;-88
2022/08/14 02:21:17;;;;;;;6.10;5.70;;;19.20;74.40;;;;;;5010548;28;20447;-88
2022/08/14 02:23:45;;;;;;;5.73;5.13;;;19.20;74.70;;;;;;5007488;28;20484;-88
2022/08/14 02:26:17;;;;;;;5.73;5.23;;;19.20;74.70;;;;;;5007415;28;20866;-88
2022/08/14 02:28:46;;;;;;;6.73;4.77;;;19.20;74.90;;;;;;5009591;28;20917;-88
2022/08/14 02:31:13;;;;;;;5.80;5.40;;;19.20;74.80;;;;;;5012695;28;20446;-88
2022/08/14 02:33:41;;;;;;;7.43;6.60;;;19.10;75.10;;;;;;5005546;28;20458;-89
2022/08/14 02:36:09;;;;;;;5.90;5.40;;;19.10;75.60;;;;;;4999143;28;20465;-88
2022/08/14 02:38:37;;;;;;;10.97;5.23;;;19.00;76.30;;;;;;5007240;28;20893;-88
2022/08/14 02:41:07;;;;;;;6.13;5.50;;;18.90;76.30;;;;;;5007116;28;20446;-88
2022/08/14 02:43:34;;;;;;;6.20;4.97;;;18.90;76.10;;;;;;5007404;28;20841;-88
2022/08/14 02:46:02;;;;;;;5.93;5.43;;;18.90;76.00;;;;;;5005906;28;20455;-88
2022/08/14 02:48:34;;;;;;;6.07;5.40;;;18.90;76.70;;;;;;5005686;28;20474;-88
2022/08/14 02:51:03;;;;;;;6.23;5.67;;;18.80;77.10;;;;;;5004830;28;20449;-88
2022/08/14 02:53:31;;;;;;;8.20;5.57;;;18.70;77.90;;;;;;5005107;28;21734;-88
2022/08/14 02:55:58;;;;;;;6.00;5.53;;;18.70;78.50;;;;;;5011336;28;20811;-88
2022/08/14 02:58:27;;;;;;;6.17;5.53;;;18.60;78.80;;;;;;5009237;28;20517;-88
2022/08/14 03:00:54;;;;;;;6.50;5.93;;;18.60;79.20;;;;;;5007802;28;20442;-88
2022/08/14 03:03:22;;;;;;;9.90;6.00;;;18.50;79.60;;;;;;5009054;28;21061;-88
2022/08/14 03:05:50;;;;;;;6.40;5.90;;;18.50;80.20;;;;;;5004499;28;20951;-88
2022/08/14 03:08:18;;;;;;;7.63;5.57;;;18.40;80.40;;;;;;5004761;28;20478;-88
2022/08/14 03:10:45;;;;;;;7.30;5.70;;;18.40;81.00;;;;;;5010592;28;20477;-88
2022/08/14 03:13:12;;;;;;;5.93;5.30;;;18.40;81.40;;;;;;5010190;28;20509;-88
2022/08/14 03:15:43;;;;;;;7.07;5.90;;;18.40;81.70;;;;;;5010645;28;20442;-88
2022/08/14 03:18:11;;;;;;;5.57;5.07;;;18.30;81.70;;;;;;5009335;28;20474;-88
2022/08/14 03:20:39;;;;;;;9.77;5.70;;;18.30;82.10;;;;;;5006282;28;20447;-87
2022/08/14 03:23:06;;;;;;;6.53;5.93;;;18.30;82.40;;;;;;5012446;28;20474;-88
2022/08/14 03:25:34;;;;;;;10.00;6.03;;;18.40;82.10;;;;;;5011202;28;20447;-87
2022/08/14 03:28:02;;;;;;;6.67;5.60;;;18.40;81.60;;;;;;5024999;28;20445;-87
2022/08/14 03:30:30;;;;;;;7.60;6.00;;;18.40;81.70;;;;;;5033819;28;20427;-87
2022/08/14 03:32:58;;;;;;;8.17;6.03;;;18.30;82.20;;;;;;5026389;28;20463;-87
2022/08/14 03:35:25;;;;;;;6.63;5.40;;;18.20;83.10;;;;;;5028925;28;20508;-88
2022/08/14 03:37:53;;;;;;;6.80;6.10;;;18.10;83.60;;;;;;5021570;28;20441;-87
2022/08/14 03:40:21;;;;;;;7.50;6.33;;;18.10;84.30;;;;;;5011940;28;20534;-88
2022/08/14 03:42:47;;;;;;;6.17;5.57;;;18.10;84.70;;;;;;5016882;28;20454;-87
2022/08/14 03:45:16;;;;;;;6.20;5.60;;;18.00;85.20;;;;;;5035896;28;20809;-87
2022/08/14 03:47:43;;;;;;;7.20;5.23;;;18.00;85.30;;;;;;5037684;28;20431;-88
2022/08/14 03:50:11;;;;;;;5.53;5.03;;;18.00;85.60;;;;;;5032088;28;20443;-87
2022/08/14 03:52:38;;;;;;;5.30;4.90;;;18.00;86.00;;;;;;5030380;28;20542;-87
2022/08/14 03:55:11;;;;;;;5.80;5.40;;;17.90;86.00;;;;;;5021798;28;20446;-88
2022/08/14 03:57:38;;;;;;;9.27;6.50;;;17.90;86.90;;;;;;5017522;28;20449;-87
2022/08/14 04:00:09;;;;;;;6.20;5.70;;;17.90;86.30;;;;;;5015809;28;20473;-87
2022/08/14 04:02:36;;;;;;;11.23;6.63;;;17.80;86.60;;;;;;5017811;28;20538;-87
2022/08/14 04:05:04;;;;;;;5.93;5.13;;;17.80;87.00;;;;;;5018916;28;20442;-87
2022/08/14 04:07:30;;;;;;;6.10;5.50;;;17.70;87.50;;;;;;5016284;28;20447;-87
2022/08/14 04:09:57;;;;;;;6.13;5.63;;;17.70;87.80;;;;;;5017782;28;20445;-87
2022/08/14 04:12:25;;;;;;;5.73;5.23;;;17.80;87.70;;;;;;5012194;28;20463;-88
2022/08/14 04:14:52;;;;;;;6.80;6.30;;;17.80;87.80;;;;;;5011451;28;20450;-87
2022/08/14 04:17:19;;;;;;;8.23;6.47;;;17.90;87.70;;;;;;5012302;28;20455;-87
2022/08/14 04:19:46;;;;;;;6.00;5.50;;;17.90;87.80;;;;;;5009232;28;20541;-87
2022/08/14 04:22:13;;;;;;;6.37;5.77;;;17.90;88.40;;;;;;5029741;28;20464;-87
2022/08/14 04:24:41;;;;;;;7.37;5.70;;;17.80;88.70;;;;;;5031236;28;20428;-87
2022/08/14 04:27:10;;;;;;;6.30;5.70;;;17.80;88.90;;;;;;5011577;28;20509;-87
2022/08/14 04:29:40;;;;;;;6.17;5.67;;;17.80;89.50;;;;;;5004555;28;20448;-87
2022/08/14 04:32:07;;;;;;;6.37;5.77;;;17.80;89.60;;;;;;5014045;28;20471;-87
2022/08/14 04:34:36;;;;;;;6.27;5.67;;;17.80;89.60;;;;;;5010090;28;20443;-87
2022/08/14 04:45:17;;;;;;;6.97;6.10;;;17.80;90.00;;;;;;5008841;28;20509;-87
2022/08/14 04:50:29;;;;;;;8.77;5.83;;;17.80;90.10;;;;;;5008603;28;20423;-87
2022/08/14 04:52:55;;;;;;;6.40;5.80;;;17.90;90.10;;;;;;5011615;28;20510;-87
2022/08/14 04:55:23;;;;;;;6.60;6.10;;;17.90;90.00;;;;;;5026690;28;20457;-87
2022/08/14 04:57:49;;;;;;;7.10;6.17;;;18.00;90.10;;;;;;5022003;28;20434;-87
2022/08/14 05:00:18;;;;;;;6.80;5.83;;;18.30;89.80;;;;;;5011028;28;20908;-87
2022/08/14 05:02:45;;;;;;;7.83;6.50;;;18.60;88.30;;;;;;5011768;28;20466;-88
2022/08/14 05:05:11;;;;;;;7.80;7.00;;;19.00;86.30;;;;;;5011551;28;20481;-87
2022/08/14 05:07:38;;;;;;;6.13;5.63;;;19.40;84.00;;;;;;5014629;28;21009;-87
2022/08/14 05:10:05;;;;;;;6.63;6.10;;;19.90;81.40;;;;;;5004242;28;20510;-88
2022/08/14 05:12:32;;;;;;;6.47;5.87;;;20.20;79.10;;;;;;5007570;28;20469;-88
2022/08/14 05:14:59;;;;;;;7.50;5.60;;;20.50;77.40;;;;;;5007512;28;20973;-88
2022/08/14 05:17:27;;;;;;;6.43;5.93;;;20.70;75.60;;;;;;5028049;28;20460;-87
2022/08/14 05:19:54;;;;;;;6.30;5.23;;;21.00;74.50;;;;;;5015872;28;20963;-87
2022/08/14 05:22:21;;;;;;;6.97;5.20;;;21.30;72.60;;;;;;5005337;28;20471;-88
2022/08/14 05:24:48;;;;;;;6.50;5.90;;;21.60;70.70;;;;;;5006316;28;20439;-88
2022/08/14 05:27:19;;;;;;;5.70;5.30;;;21.60;69.40;;;;;;5009400;28;20438;-88
2022/08/14 05:29:46;;;;;;;6.20;5.70;;;21.50;69.10;;;;;;5007011;28;20455;-88
2022/08/14 05:32:15;;;;;;;6.40;5.90;;;21.70;68.70;;;;;;5006501;28;20930;-88
2022/08/14 05:34:43;;;;;;;6.90;5.90;;;21.90;67.70;;;;;;5008558;28;20489;-88
2022/08/14 05:37:10;;;;;;;7.87;5.60;;;22.20;66.80;;;;;;5027009;28;20433;-88
2022/08/14 05:39:38;;;;;;;9.97;6.80;;;22.30;65.10;;;;;;5035856;28;20458;-88
2022/08/14 05:42:05;;;;;;;12.27;6.00;;;22.30;64.60;;;;;;5018634;28;20459;-88
2022/08/14 05:44:32;;;;;;;8.37;5.50;;;22.00;65.20;;;;;;5026047;28;20420;-87
2022/08/14 05:46:59;;;;;;;5.33;4.93;;;21.80;65.90;;;;;;5013617;28;20438;-88
2022/08/14 05:49:26;;;;;;;6.07;5.50;;;21.60;65.50;;;;;;5008064;28;20453;-88
2022/08/14 05:51:54;;;;;;;6.03;5.50;;;21.60;65.70;;;;;;5010561;28;20466;-87
2022/08/14 05:54:21;;;;;;;5.60;5.20;;;21.70;65.90;;;;;;5028641;28;20436;-88
2022/08/14 05:56:47;;;;;;;7.13;6.53;;;21.70;65.70;;;;;;5031641;28;20446;-88
2022/08/14 05:59:14;;;;;;;7.40;5.83;;;22.10;65.20;;;;;;5007632;28;20482;-87
2022/08/14 06:01:41;;;;;;;6.20;4.70;;;22.20;63.70;;;;;;5006733;28;20951;-88
2022/08/14 06:04:08;;;;;;;6.30;5.27;;;22.60;63.40;;;;;;5020458;28;20434;-88
2022/08/14 06:06:34;;;;;;;6.37;5.70;;;22.90;61.80;;;;;;5035075;28;20446;-88
2022/08/14 06:09:03;;;;;;;5.67;5.17;;;23.40;60.10;;;;;;5018123;28;20442;-87
2022/08/14 06:11:29;;;;;;;10.33;5.97;;;23.60;59.20;;;;;;5011039;28;20461;-88
2022/08/14 06:13:57;;;;;;;5.90;5.40;;;23.80;59.00;;;;;;5019685;28;20478;-88
2022/08/14 06:16:24;;;;;;;6.33;5.73;;;24.00;58.90;;;;;;5014040;28;20526;-88
2022/08/14 06:18:51;;;;;;;8.57;6.50;;;24.00;58.90;;;;;;5002796;28;20430;-88
2022/08/14 06:21:17;;;;;;;6.83;6.23;;;24.00;58.60;;;;;;5016215;28;20447;-88
2022/08/14 06:23:44;;;;;;;6.80;6.10;;;24.20;58.10;;;;;;5011843;28;20467;-88
2022/08/14 06:26:12;;;;;;;5.87;5.27;;;24.10;58.20;;;;;;5016542;28;20442;-87
2022/08/14 06:28:39;;;;;;;8.73;5.67;;;24.30;58.30;;;;;;5007427;28;20447;-89
2022/08/14 06:31:06;;;;;;;8.03;6.10;;;24.60;57.70;;;;;;5008119;28;20446;-88
2022/08/14 06:33:33;;;;;;;6.00;4.90;;;25.10;56.70;;;;;;5010748;28;20462;-89
2022/08/14 06:36:00;;;;;;;7.93;6.10;;;25.30;55.50;;;;;;5005212;28;20444;-89
2022/08/14 06:38:26;;;;;;;6.47;4.53;;;25.70;54.70;;;;;;5009894;28;20445;-89
2022/08/14 06:40:53;;;;;;;5.30;4.90;;;26.30;53.80;;;;;;5013983;28;20482;-89
2022/08/14 06:43:22;;;;;;;5.30;4.80;;;26.50;52.40;;;;;;5038394;28;20474;-89
2022/08/14 06:45:50;;;;;;;5.50;4.70;;;26.90;51.10;;;;;;5035839;28;20470;-89
2022/08/14 06:48:18;;;;;;;5.57;4.23;;;27.10;50.30;;;;;;5027244;28;20446;-90
2022/08/14 06:50:46;;;;;;;5.50;5.00;;;27.50;49.90;;;;;;5012473;28;20435;-89
2022/08/14 06:53:13;;;;;;;4.57;4.20;;;28.10;48.70;;;;;;5037573;28;20471;-89
2022/08/14 06:55:41;;;;;;;4.73;4.43;;;28.50;47.90;;;;;;5026972;28;21063;-89
2022/08/14 06:58:12;;;;;;;8.70;4.73;;;28.70;47.20;;;;;;5009017;28;20452;-89
2022/08/14 07:05:44;;;;;;;5.50;4.90;;;29.10;46.30;;;;;;5010711;28;20479;-89
2022/08/14 07:06:16;;;;;;;4.23;3.83;;;30.40;44.30;;;;;;5005794;28;20553;-89
2022/08/14 07:08:43;;;;;;;4.30;3.90;;;30.30;43.10;;;;;;5008233;28;20473;-89
2022/08/14 07:11:11;;;;;;;4.87;4.47;;;30.20;43.20;;;;;;5010689;28;20449;-89
2022/08/14 07:13:38;;;;;;;5.30;4.20;;;30.80;42.20;;;;;;5009697;28;20469;-83
2022/08/14 07:16:06;;;;;;;4.63;4.23;;;31.00;42.20;;;;;;5016115;28;20438;-84
2022/08/14 07:18:35;;;;;;;4.37;3.97;;;31.50;41.40;;;;;;5020062;28;20454;-82
2022/08/14 07:21:04;;;;;;;4.70;4.30;;;31.90;40.10;;;;;;5017940;28;20495;-85
2022/08/14 07:23:31;;;;;;;4.80;4.30;;;32.50;39.60;;;;;;5020717;28;20474;-85
2022/08/14 07:26:00;;;;;;;4.87;4.50;;;32.20;39.70;;;;;;5021904;28;20443;-84
2022/08/14 07:28:30;;;;;;;5.50;4.80;;;32.50;39.90;;;;;;5021587;28;20867;-85
2022/08/14 07:30:58;;;;;;;5.27;4.87;;;32.70;38.90;;;;;;5020582;28;20443;-83
2022/08/14 07:33:27;;;;;;;5.60;5.10;;;32.50;38.50;;;;;;5018970;28;20462;-84
2022/08/14 07:35:56;;;;;;;4.07;3.77;;;32.10;39.90;;;;;;5017791;28;20448;-84
2022/08/14 07:38:23;;;;;;;5.47;4.07;;;32.10;39.60;;;;;;5013146;28;20456;-84
2022/08/14 07:40:51;;;;;;;6.07;4.60;;;32.90;38.90;;;;;;5014740;28;20477;-84
2022/08/14 07:43:18;;;;;;;4.53;4.13;;;33.00;38.00;;;;;;5019224;28;20477;-85
2022/08/14 07:45:45;;;;;;;6.07;4.63;;;32.40;38.20;;;;;;5034075;28;20443;-83
2022/08/14 07:48:12;;;;;;;5.50;5.10;;;32.20;39.20;;;;;;5030963;28;20438;-82
2022/08/14 07:50:40;;;;;;;6.30;5.80;;;32.10;39.40;;;;;;5033009;28;20460;-82
2022/08/14 07:53:07;;;;;;;4.70;4.30;;;32.50;39.30;;;;;;5019955;28;20477;-83
2022/08/14 07:55:34;;;;;;;4.70;4.30;;;33.40;37.90;;;;;;5017659;28;20448;-81
2022/08/14 07:58:01;;;;;;;4.70;4.27;;;34.40;36.60;;;;;;5014912;28;20874;-84
2022/08/14 08:00:28;;;;;;;4.40;4.10;;;35.10;35.60;;;;;;5035288;28;20498;-81
2022/08/14 08:02:58;;;;;;;4.70;4.30;;;35.70;35.60;;;;;;5035567;28;20445;-82
2022/08/14 08:05:26;;;;;;;4.30;4.00;;;36.50;33.90;;;;;;5018325;28;20472;-83
2022/08/14 08:07:54;;;;;;;3.60;3.30;;;36.70;33.40;;;;;;5018154;28;20448;-83
2022/08/14 08:10:33;;;;;;;4.47;3.87;;;36.50;32.60;;;;;;5010990;28;20478;-83
2022/08/14 08:13:01;;;;;;;3.60;3.30;;;36.90;32.20;;;;;;5016594;28;21040;-84
2022/08/14 08:15:31;;;;;;;3.80;3.50;;;37.40;31.80;;;;;;5017319;28;20457;-83
2022/08/14 08:17:59;;;;;;;3.87;3.53;;;37.60;31.50;;;;;;5015687;28;20445;-84
2022/08/14 08:20:27;;;;;;;3.93;3.63;;;37.60;31.20;;;;;;5019719;28;20516;-83
2022/08/14 08:22:57;;;;;;;4.07;3.73;;;37.60;31.40;;;;;;5029078;28;20445;-83
2022/08/14 08:25:27;;;;;;;3.40;3.20;;;38.50;30.30;;;;;;5028170;28;20446;-85
2022/08/14 08:27:58;;;;;;;3.53;3.23;;;38.60;30.50;;;;;;5015776;28;20828;-84
2022/08/14 08:30:26;;;;;;;3.70;3.50;;;39.00;29.90;;;;;;5014069;28;20445;-85
2022/08/14 08:32:54;;;;;;;3.67;3.47;;;38.90;29.70;;;;;;5033724;28;20469;-81
2022/08/14 08:35:22;;;;;;;3.30;3.00;;;38.70;30.00;;;;;;5036556;28;20517;-83
2022/08/14 08:37:49;;;;;;;4.30;3.90;;;39.50;29.50;;;;;;5031428;28;20444;-82
2022/08/14 08:40:26;;;;;;;3.67;3.10;;;39.80;28.80;;;;;;5018154;28;20994;-83
2022/08/14 08:42:53;;;;;;;3.97;3.53;;;40.80;28.20;;;;;;5019118;28;20478;-84
2022/08/14 08:45:21;;;;;;;3.80;3.40;;;41.40;27.90;;;;;;5017408;28;20458;-83
2022/08/14 08:47:49;;;;;;;3.73;3.30;;;41.30;27.30;;;;;;5025861;28;20431;-83
2022/08/14 08:50:19;;;;;;;3.80;3.43;;;41.70;27.10;;;;;;5023317;28;20451;-83
2022/08/14 08:52:50;;;;;;;3.83;3.47;;;41.40;27.20;;;;;;5019866;28;20499;-84
2022/08/14 08:55:26;;;;;;;3.93;3.60;;;41.00;27.60;;;;;;5019726;28;20446;-83
2022/08/14 08:57:57;;;;;;;3.13;2.93;;;40.40;27.70;;;;;;5020278;28;20446;-83
2022/08/14 09:00:27;;;;;;;3.80;3.50;;;39.70;28.10;;;;;;5021764;28;20485;-84
2022/08/14 09:03:00;;;;;;;3.60;3.30;;;38.80;28.50;;;;;;5013577;28;20979;-84
2022/08/14 09:05:27;;;;;;;3.37;3.17;;;38.80;28.20;;;;;;5019737;28;20801;-85
2022/08/14 09:07:54;;;;;;;3.47;3.17;;;39.80;27.90;;;;;;5032166;28;20423;-81
2022/08/14 09:10:21;;;;;;;3.77;3.47;;;39.50;27.40;;;;;;5032330;28;20477;-84
2022/08/14 09:12:49;;;;;;;4.00;3.27;;;39.90;27.00;;;;;;5026225;28;21008;-84
2022/08/14 09:15:16;;;;;;;3.60;3.30;;;39.90;26.80;;;;;;5014824;28;20813;-83
2022/08/14 09:17:43;;;;;;;4.10;3.10;;;40.10;27.20;;;;;;5013502;28;20454;-82
2022/08/14 09:20:12;;;;;;;3.90;3.57;;;40.90;26.30;;;;;;5010749;28;20896;-84
2022/08/14 09:22:40;;;;;;;5.10;3.83;;;41.70;25.60;;;;;;5022033;28;20490;-84
2022/08/14 09:25:08;;;;;;;3.30;3.00;;;41.60;25.30;;;;;;5016039;28;20446;-82
2022/08/14 09:27:36;;;;;;;4.23;3.33;;;41.40;25.00;;;;;;5021678;28;20507;-82
2022/08/14 09:30:08;;;;;;;3.50;3.20;;;41.00;24.70;;;;;;5022542;28;20436;-84
2022/08/14 09:32:45;;;;;;;3.43;3.10;;;40.60;24.90;;;;;;5023230;28;20489;-84
2022/08/14 09:35:19;;;;;;;4.63;3.30;;;39.70;24.70;;;;;;5023047;28;20448;-83
2022/08/14 09:37:57;;;;;;;3.40;3.10;;;39.90;25.90;;;;;;5020757;28;20446;-84
2022/08/14 09:40:35;;;;;;;3.47;3.17;;;40.00;25.70;;;;;;5019402;28;20493;-83
2022/08/14 09:43:13;;;;;;;3.20;2.90;;;40.70;25.30;;;;;;5013586;28;20565;-82
2022/08/14 09:45:49;;;;;;;3.47;3.07;;;40.80;25.60;;;;;;5022005;28;20435;-80
2022/08/14 09:48:17;;;;;;;3.53;3.17;;;41.90;24.60;;;;;;5031875;28;20530;-80
2022/08/14 09:50:49;;;;;;;3.50;3.20;;;40.90;24.90;;;;;;5034078;28;20421;-81
2022/08/14 09:53:18;;;;;;;3.40;3.10;;;40.80;24.90;;;;;;5032636;28;20455;-82
2022/08/14 09:55:45;;;;;;;3.83;3.50;;;40.80;25.20;;;;;;5016150;28;20453;-83
2022/08/14 09:58:14;;;;;;;3.40;3.20;;;40.40;25.10;;;;;;5020641;28;20442;-83
2022/08/14 10:00:48;;;;;;;3.60;3.40;;;41.30;25.00;;;;;;5018614;28;20480;-83
2022/08/14 10:03:26;;;;;;;3.10;2.80;;;41.50;24.40;;;;;;5019803;28;20462;-83
2022/08/14 10:06:04;;;;;;;4.03;3.73;;;41.10;24.30;;;;;;5019037;28;20473;-84
2022/08/14 10:08:41;;;;;;;3.60;3.20;;;39.70;25.60;;;;;;5015922;28;20591;-84
2022/08/14 10:11:18;;;;;;;4.10;3.80;;;40.10;25.60;;;;;;5017529;28;20435;-83
2022/08/14 10:13:46;;;;;;;3.30;3.10;;;40.30;25.10;;;;;;5010921;28;20466;-84
2022/08/14 10:16:15;;;;;;;3.87;3.57;;;40.50;25.10;;;;;;5018933;28;20431;-82
2022/08/14 10:18:42;;;;;;;3.87;3.57;;;40.10;25.50;;;;;;5035596;28;20430;-80
2022/08/14 10:21:17;;;;;;;3.80;3.50;;;39.30;25.80;;;;;;5033349;28;20513;-82
2022/08/14 10:23:48;;;;;;;3.40;3.10;;;38.10;27.10;;;;;;5026693;28;20449;-82
2022/08/14 10:26:17;;;;;;;3.70;3.40;;;38.30;27.40;;;;;;5032379;28;20437;-81
2022/08/14 10:28:49;;;;;;;3.37;3.10;;;38.60;26.80;;;;;;5032564;28;20445;-79
2022/08/14 10:31:23;;;;;;;3.50;3.30;;;39.40;26.10;;;;;;5033850;28;20440;-80
2022/08/14 10:34:02;;;;;;;3.57;3.30;;;40.10;25.30;;;;;;5022933;28;20463;-82
2022/08/14 10:36:31;;;;;;;4.07;3.70;;;40.20;25.30;;;;;;5020046;28;20442;-84
2022/08/14 10:39:00;;;;;;;4.10;3.80;;;40.20;25.40;;;;;;5020946;28;20466;-83
2022/08/14 10:41:37;;;;;;;3.80;3.53;;;40.10;25.50;;;;;;5016350;28;20549;-83
2022/08/14 10:44:13;;;;;;;3.90;3.20;;;40.80;25.00;;;;;;5005773;28;20469;-83
2022/08/14 10:46:43;;;;;;;3.60;3.30;;;40.10;25.40;;;;;;5019344;28;20438;-82
2022/08/14 10:49:25;;;;;;;3.73;3.53;;;40.10;25.30;;;;;;5009648;28;20456;-82
2022/08/14 10:52:04;;;;;;;4.23;3.83;;;41.20;24.50;;;;;;5019481;28;20459;-84
2022/08/14 10:54:33;;;;;;;3.87;3.53;;;41.00;24.40;;;;;;5018967;28;20458;-82
2022/08/14 10:57:16;;;;;;;5.53;3.90;;;40.90;24.00;;;;;;5020740;28;20887;-81
2022/08/14 10:59:44;;;;;;;4.03;3.73;;;41.80;24.00;;;;;;5014499;28;20470;-83
2022/08/14 11:02:21;;;;;;;4.20;3.90;;;42.20;23.40;;;;;;5017212;28;20478;-82
2022/08/14 11:05:04;;;;;;;3.90;3.60;;;42.30;23.30;;;;;;5010506;28;20818;-83
2022/08/14 11:07:31;;;;;;;3.87;3.60;;;42.30;23.20;;;;;;5020236;28;20441;-84
2022/08/14 11:10:00;;;;;;;4.33;3.93;;;42.70;23.00;;;;;;5021872;28;20470;-83
2022/08/14 11:12:38;;;;;;;4.13;3.80;;;41.70;23.50;;;;;;5023809;28;20517;-85
2022/08/14 11:15:06;;;;;;;4.37;4.07;;;41.70;23.80;;;;;;5009491;28;20446;-83
2022/08/14 11:17:37;;;;;;;5.30;3.40;;;41.60;23.60;;;;;;5015485;28;20447;-84
2022/08/14 11:20:09;;;;;;;3.63;3.43;;;42.40;23.20;;;;;;5021668;28;20451;-81
2022/08/14 11:22:40;;;;;;;4.10;3.80;;;43.20;22.60;;;;;;5020290;28;20455;-84
2022/08/14 11:25:10;;;;;;;4.10;3.80;;;43.70;22.10;;;;;;5019474;28;20439;-83
2022/08/14 11:27:39;;;;;;;4.47;4.17;;;42.80;22.10;;;;;;5022916;28;20455;-80
2022/08/14 11:30:08;;;;;;;6.30;3.77;;;42.90;22.50;;;;;;5035278;28;20430;-81
2022/08/14 11:32:42;;;;;;;6.33;4.47;;;41.10;23.10;;;;;;5027983;28;20462;-82
2022/08/14 11:35:15;;;;;;;4.50;4.10;;;40.90;24.10;;;;;;5029089;28;20452;-84
2022/08/14 11:37:51;;;;;;;3.97;3.67;;;40.50;24.00;;;;;;5023074;28;20451;-82
2022/08/14 11:40:18;;;;;;;3.97;3.67;;;41.00;23.50;;;;;;5012190;28;20457;-83
2022/08/14 11:42:47;;;;;;;4.70;3.50;;;41.90;23.00;;;;;;5008500;28;20848;-83
2022/08/14 11:45:15;;;;;;;6.40;4.13;;;41.70;22.70;;;;;;5021875;28;20497;-83
2022/08/14 11:47:44;;;;;;;4.73;3.70;;;39.60;23.30;;;;;;5025256;28;20536;-84
2022/08/14 11:50:17;;;;;;;4.50;4.10;;;38.60;24.70;;;;;;5021951;28;20449;-85
2022/08/14 11:52:47;;;;;;;3.80;3.50;;;38.80;24.80;;;;;;5034534;28;20548;-83
2022/08/14 11:55:26;;;;;;;4.10;3.80;;;38.10;25.10;;;;;;5032486;28;20455;-85
2022/08/14 11:58:01;;;;;;;3.80;3.50;;;39.60;25.20;;;;;;5036056;28;20490;-85
2022/08/14 12:00:29;;;;;;;3.70;3.47;;;40.60;23.10;;;;;;5033929;28;20447;-84
2022/08/14 12:02:59;;;;;;;5.33;3.70;;;42.00;22.60;;;;;;5030360;28;21208;-83
2022/08/14 12:05:31;;;;;;;3.90;3.50;;;43.00;22.10;;;;;;5031683;28;20430;-82
2022/08/14 12:07:58;;;;;;;3.90;3.60;;;41.80;22.60;;;;;;5026678;28;20491;-82
2022/08/14 12:10:25;;;;;;;3.23;2.93;;;41.70;22.70;;;;;;5026386;28;20947;-83
2022/08/14 12:12:55;;;;;;;4.03;3.63;;;42.50;22.30;;;;;;5018021;28;20540;-83
2022/08/14 12:15:33;;;;;;;3.93;3.63;;;41.90;21.80;;;;;;5016129;28;20465;-84
2022/08/14 12:18:05;;;;;;;3.67;3.43;;;42.00;22.50;;;;;;5019202;28;20590;-83
2022/08/14 12:20:36;;;;;;;4.00;3.80;;;42.80;22.40;;;;;;5010173;28;20898;-84
2022/08/14 12:23:04;;;;;;;3.30;3.10;;;44.30;21.40;;;;;;5008744;28;20455;-82
2022/08/14 12:25:31;;;;;;;3.50;3.20;;;44.90;20.20;;;;;;5015025;28;20435;-83
2022/08/14 12:28:04;;;;;;;3.70;3.40;;;44.80;19.80;;;;;;5017021;28;20489;-83
2022/08/14 12:30:33;;;;;;;3.57;3.37;;;44.60;19.80;;;;;;5016597;28;20443;-83
2022/08/14 12:33:02;;;;;;;3.10;2.90;;;44.00;19.90;;;;;;5019650;28;20910;-83
2022/08/14 12:35:42;;;;;;;4.60;3.77;;;43.40;20.70;;;;;;5015125;28;20439;-82
2022/08/14 12:38:10;;;;;;;4.80;2.83;;;41.90;21.30;;;;;;5014426;28;20441;-84
2022/08/14 12:40:46;;;;;;;3.47;3.27;;;42.10;21.40;;;;;;5020727;28;20439;-85
2022/08/14 12:43:14;;;;;;;3.43;3.20;;;43.10;21.00;;;;;;5019086;28;20893;-83
2022/08/14 12:45:49;;;;;;;2.90;2.70;;;44.90;20.10;;;;;;5018849;28;20435;-81
2022/08/14 12:48:16;;;;;;;3.90;2.80;;;44.70;19.40;;;;;;5014718;28;20439;-84
2022/08/14 12:50:46;;;;;;;3.23;2.93;;;45.10;19.70;;;;;;5013621;28;20448;-84
2022/08/14 12:53:16;;;;;;;4.63;3.13;;;44.50;18.40;;;;;;5020707;28;21165;-84
2022/08/14 12:55:44;;;;;;;3.60;3.30;;;43.20;20.00;;;;;;5012853;28;20467;-84
2022/08/14 12:58:12;;;;;;;3.00;2.67;;;40.70;20.70;;;;;;5014195;28;20458;-83
2022/08/14 13:00:49;;;;;;;2.93;2.73;;;39.60;22.10;;;;;;5016203;28;20430;-83
2022/08/14 13:03:24;;;;;;;3.60;3.30;;;40.00;21.80;;;;;;5013038;28;20477;-83
2022/08/14 13:05:54;;;;;;;4.40;3.07;;;41.00;21.20;;;;;;5010376;28;20443;-82
2022/08/14 13:08:21;;;;;;;3.50;3.20;;;41.10;21.00;;;;;;5011220;28;20823;-83
2022/08/14 13:10:52;;;;;;;2.80;2.57;;;40.40;21.80;;;;;;5019247;28;20439;-83
2022/08/14 13:13:20;;;;;;;3.67;2.80;;;41.10;21.40;;;;;;5032779;28;20503;-80